sensor_id;sensor_type;location;lat;lon;timestamp;pressure;altitude;pressure_sealevel;temperature;humidity
9141;BME280;46330;50.822;7.126;2022-09-01T00:00:11;101316.63;;;17.97;61.58
9141;BME280;46330;50.822;7.126;2022-09-01T00:02:40;101319.59;;;17.89;61.35
9141;BME280;46330;50.822;7.126;2022-09-01T00:05:10;101320.50;;;17.88;61.51
9141;BME280;46330;50.822;7.126;2022-09-01T00:07:40;101318.97;;;17.83;62.00
9141;BME280;46330;50.822;7.126;2022-09-01T00:10:08;101315.53;;;17.81;62.08
9141;BME280;46330;50.822;7.126;2022-09-01T00:12:37;101319.75;;;17.85;62.42
9141;BME280;46330;50.822;7.126;2022-09-01T00:15:08;101323.16;;;17.88;63.13
9141;BME280;46330;50.822;7.126;2022-09-01T00:17:36;101326.00;;;17.84;63.24
9141;BME280;46330;50.822;7.126;2022-09-01T00:20:05;101325.63;;;17.69;64.40
9141;BME280;46330;50.822;7.126;2022-09-01T00:22:34;101327.88;;;17.57;64.96
9141;BME280;46330;50.822;7.126;2022-09-01T00:25:05;101328.31;;;17.45;65.57
9141;BME280;46330;50.822;7.126;2022-09-01T00:27:33;101327.19;;;17.27;66.74
9141;BME280;46330;50.822;7.126;2022-09-01T00:30:03;101331.28;;;17.11;68.03
9141;BME280;46330;50.822;7.126;2022-09-01T00:32:31;101332.91;;;17.15;67.91
9141;BME280;46330;50.822;7.126;2022-09-01T00:34:59;101329.19;;;17.20;68.24
9141;BME280;46330;50.822;7.126;2022-09-01T00:37:27;101332.81;;;17.18;68.25
9141;BME280;46330;50.822;7.126;2022-09-01T00:39:55;101331.03;;;17.18;68.95
9141;BME280;46330;50.822;7.126;2022-09-01T00:42:24;101325.75;;;17.18;68.00
9141;BME280;46330;50.822;7.126;2022-09-01T00:44:52;101328.56;;;17.12;69.01
9141;BME280;46330;50.822;7.126;2022-09-01T00:47:21;101325.75;;;17.18;68.22
9141;BME280;46330;50.822;7.126;2022-09-01T00:49:50;101332.81;;;17.18;69.62
9141;BME280;46330;50.822;7.126;2022-09-01T00:52:20;101330.22;;;17.16;69.66
9141;BME280;46330;50.822;7.126;2022-09-01T00:54:52;101325.22;;;17.09;70.51
9141;BME280;46330;50.822;7.126;2022-09-01T00:57:21;101326.75;;;17.14;70.36
9141;BME280;46330;50.822;7.126;2022-09-01T00:59:53;101321.69;;;17.08;69.38
9141;BME280;46330;50.822;7.126;2022-09-01T01:02:23;101316.66;;;17.01;69.53
9141;BME280;46330;50.822;7.126;2022-09-01T01:04:52;101320.31;;;16.97;70.12
9141;BME280;46330;50.822;7.126;2022-09-01T01:07:26;101317.06;;;16.90;70.85
9141;BME280;46330;50.822;7.126;2022-09-01T01:09:55;101315.41;;;16.86;70.91
9141;BME280;46330;50.822;7.126;2022-09-01T01:12:23;101311.16;;;16.82;71.00
9141;BME280;46330;50.822;7.126;2022-09-01T01:14:54;101311.97;;;16.84;70.37
9141;BME280;46330;50.822;7.126;2022-09-01T01:17:22;101308.78;;;16.75;71.04
9141;BME280;46330;50.822;7.126;2022-09-01T01:19:52;101313.31;;;16.71;70.95
9141;BME280;46330;50.822;7.126;2022-09-01T01:22:43;101319.66;;;16.65;71.99
9141;BME280;46330;50.822;7.126;2022-09-01T01:25:39;101320.00;;;16.55;72.09
9141;BME280;46330;50.822;7.126;2022-09-01T01:28:14;101323.88;;;16.43;72.70
9141;BME280;46330;50.822;7.126;2022-09-01T01:30:50;101324.75;;;16.44;73.04
9141;BME280;46330;50.822;7.126;2022-09-01T01:33:18;101316.84;;;16.44;72.65
9141;BME280;46330;50.822;7.126;2022-09-01T01:35:49;101312.59;;;16.38;72.77
9141;BME280;46330;50.822;7.126;2022-09-01T01:38:18;101320.78;;;16.31;72.14
9141;BME280;46330;50.822;7.126;2022-09-01T01:40:51;101319.84;;;16.32;71.47
9141;BME280;46330;50.822;7.126;2022-09-01T01:43:23;101315.41;;;16.34;72.79
9141;BME280;46330;50.822;7.126;2022-09-01T01:45:54;101313.72;;;16.31;71.47
9141;BME280;46330;50.822;7.126;2022-09-01T01:48:28;101312.66;;;16.37;71.16
9141;BME280;46330;50.822;7.126;2022-09-01T01:51:01;101311.00;;;16.33;71.00
9141;BME280;46330;50.822;7.126;2022-09-01T01:53:30;101309.25;;;16.33;71.02
9141;BME280;46330;50.822;7.126;2022-09-01T01:56:00;101315.50;;;16.31;71.48
9141;BME280;46330;50.822;7.126;2022-09-01T01:58:32;101320.88;;;16.28;71.70
9141;BME280;46330;50.822;7.126;2022-09-01T02:01:06;101322.84;;;16.21;72.42
9141;BME280;46330;50.822;7.126;2022-09-01T02:03:38;101320.19;;;16.21;72.74
9141;BME280;46330;50.822;7.126;2022-09-01T02:06:08;101328.03;;;16.24;73.38
9141;BME280;46330;50.822;7.126;2022-09-01T02:08:38;101333.03;;;16.32;73.48
9141;BME280;46330;50.822;7.126;2022-09-01T02:11:08;101327.81;;;16.30;73.21
9141;BME280;46330;50.822;7.126;2022-09-01T02:13:36;101321.88;;;16.24;73.78
9141;BME280;46330;50.822;7.126;2022-09-01T02:16:06;101327.97;;;16.26;73.95
9141;BME280;46330;50.822;7.126;2022-09-01T02:18:40;101333.91;;;16.32;73.93
9141;BME280;46330;50.822;7.126;2022-09-01T02:21:10;101334.84;;;16.31;75.34
9141;BME280;46330;50.822;7.126;2022-09-01T02:23:45;101325.09;;;16.33;73.97
9141;BME280;46330;50.822;7.126;2022-09-01T02:26:16;101332.91;;;16.36;73.40
9141;BME280;46330;50.822;7.126;2022-09-01T02:28:47;101334.44;;;16.43;73.54
9141;BME280;46330;50.822;7.126;2022-09-01T02:31:25;101324.03;;;16.39;73.64
9141;BME280;46330;50.822;7.126;2022-09-01T02:33:56;101328.53;;;16.35;75.24
9141;BME280;46330;50.822;7.126;2022-09-01T02:36:24;101321.38;;;16.39;75.22
9141;BME280;46330;50.822;7.126;2022-09-01T02:38:53;101325.75;;;16.40;74.47
9141;BME280;46330;50.822;7.126;2022-09-01T02:41:24;101327.56;;;16.38;74.44
9141;BME280;46330;50.822;7.126;2022-09-01T02:43:56;101329.47;;;16.34;74.41
9141;BME280;46330;50.822;7.126;2022-09-01T02:46:29;101321.69;;;16.30;74.44
9141;BME280;46330;50.822;7.126;2022-09-01T02:48:57;101320.81;;;16.29;74.87
9141;BME280;46330;50.822;7.126;2022-09-01T02:51:26;101325.38;;;16.24;74.74
9141;BME280;46330;50.822;7.126;2022-09-01T02:53:54;101327.47;;;16.13;76.35
9141;BME280;46330;50.822;7.126;2022-09-01T02:56:25;101324.13;;;16.08;75.97
9141;BME280;46330;50.822;7.126;2022-09-01T02:58:54;101325.00;;;16.08;76.33
9141;BME280;46330;50.822;7.126;2022-09-01T03:01:25;101320.72;;;16.04;76.49
9141;BME280;46330;50.822;7.126;2022-09-01T03:03:57;101323.50;;;16.00;76.76
9141;BME280;46330;50.822;7.126;2022-09-01T03:06:26;101324.44;;;15.97;77.11
9141;BME280;46330;50.822;7.126;2022-09-01T03:08:57;101322.94;;;15.89;77.81
9141;BME280;46330;50.822;7.126;2022-09-01T03:11:29;101327.34;;;15.88;77.80
9141;BME280;46330;50.822;7.126;2022-09-01T03:13:57;101319.59;;;15.84;77.43
9141;BME280;46330;50.822;7.126;2022-09-01T03:16:27;101320.84;;;15.72;78.82
9141;BME280;46330;50.822;7.126;2022-09-01T03:18:57;101317.72;;;15.58;77.89
9141;BME280;46330;50.822;7.126;2022-09-01T03:21:25;101324.13;;;15.49;77.63
9141;BME280;46330;50.822;7.126;2022-09-01T03:23:54;101323.50;;;15.40;77.64
9141;BME280;46330;50.822;7.126;2022-09-01T03:26:24;101319.25;;;15.34;77.46
9141;BME280;46330;50.822;7.126;2022-09-01T03:28:55;101314.78;;;15.38;78.32
9141;BME280;46330;50.822;7.126;2022-09-01T03:31:24;101317.41;;;15.38;78.46
9141;BME280;46330;50.822;7.126;2022-09-01T03:33:59;101322.72;;;15.36;79.10
9141;BME280;46330;50.822;7.126;2022-09-01T03:36:32;101311.34;;;15.34;79.68
9141;BME280;46330;50.822;7.126;2022-09-01T03:39:00;101316.91;;;15.24;80.43
9141;BME280;46330;50.822;7.126;2022-09-01T03:41:30;101319.78;;;15.16;79.91
9141;BME280;46330;50.822;7.126;2022-09-01T03:44:00;101315.56;;;15.09;80.80
9141;BME280;46330;50.822;7.126;2022-09-01T03:46:30;101328.69;;;15.11;80.59
9141;BME280;46330;50.822;7.126;2022-09-01T03:49:04;101311.91;;;15.13;79.83
9141;BME280;46330;50.822;7.126;2022-09-01T03:51:35;101309.22;;;15.16;79.46
9141;BME280;46330;50.822;7.126;2022-09-01T03:54:05;101310.31;;;15.07;79.12
9141;BME280;46330;50.822;7.126;2022-09-01T03:56:33;101313.19;;;15.00;79.95
9141;BME280;46330;50.822;7.126;2022-09-01T03:59:03;101308.03;;;14.95;80.70
9141;BME280;46330;50.822;7.126;2022-09-01T04:01:33;101313.59;;;14.85;81.65
9141;BME280;46330;50.822;7.126;2022-09-01T04:04:09;101322.66;;;14.73;81.42
9141;BME280;46330;50.822;7.126;2022-09-01T04:06:40;101305.97;;;14.73;82.37
9141;BME280;46330;50.822;7.126;2022-09-01T04:09:08;101309.53;;;14.72;81.73
9141;BME280;46330;50.822;7.126;2022-09-01T04:11:39;101308.53;;;14.76;81.21
9141;BME280;46330;50.822;7.126;2022-09-01T04:14:14;101306.84;;;14.73;81.35
9141;BME280;46330;50.822;7.126;2022-09-01T04:16:44;101309.44;;;14.75;81.04
9141;BME280;46330;50.822;7.126;2022-09-01T04:19:34;101312.09;;;14.73;80.94
9141;BME280;46330;50.822;7.126;2022-09-01T04:22:04;101304.38;;;14.67;81.47
9141;BME280;46330;50.822;7.126;2022-09-01T04:24:41;101314.19;;;14.61;82.34
9141;BME280;46330;50.822;7.126;2022-09-01T04:27:11;101315.09;;;14.60;82.61
9141;BME280;46330;50.822;7.126;2022-09-01T04:29:42;101317.66;;;14.63;82.55
9141;BME280;46330;50.822;7.126;2022-09-01T04:32:12;101304.53;;;14.61;82.27
9141;BME280;46330;50.822;7.126;2022-09-01T04:34:44;101314.41;;;14.53;83.44
9141;BME280;46330;50.822;7.126;2022-09-01T04:37:17;101312.72;;;14.49;83.44
9141;BME280;46330;50.822;7.126;2022-09-01T04:39:52;101312.88;;;14.43;84.10
9141;BME280;46330;50.822;7.126;2022-09-01T04:42:24;101317.34;;;14.39;84.28
9141;BME280;46330;50.822;7.126;2022-09-01T04:44:56;101315.72;;;14.32;84.70
9141;BME280;46330;50.822;7.126;2022-09-01T04:47:28;101312.47;;;14.23;85.00
9141;BME280;46330;50.822;7.126;2022-09-01T04:50:06;101322.28;;;14.16;86.38
9141;BME280;46330;50.822;7.126;2022-09-01T04:52:42;101326.59;;;14.19;85.75
9141;BME280;46330;50.822;7.126;2022-09-01T04:55:20;101326.91;;;14.05;86.32
9141;BME280;46330;50.822;7.126;2022-09-01T04:57:50;101320.03;;;13.98;87.11
9141;BME280;46330;50.822;7.126;2022-09-01T05:00:21;101322.56;;;14.04;87.70
9141;BME280;46330;50.822;7.126;2022-09-01T05:02:50;101320.81;;;14.03;87.75
9141;BME280;46330;50.822;7.126;2022-09-01T05:05:21;101322.56;;;14.04;87.55
9141;BME280;46330;50.822;7.126;2022-09-01T05:07:49;101319.72;;;14.12;87.31
9141;BME280;46330;50.822;7.126;2022-09-01T05:10:22;101325.78;;;14.15;87.29
9141;BME280;46330;50.822;7.126;2022-09-01T05:13:14;101324.06;;;14.14;87.93
9141;BME280;46330;50.822;7.126;2022-09-01T05:15:46;101311.75;;;14.15;87.79
9141;BME280;46330;50.822;7.126;2022-09-01T05:18:14;101311.75;;;14.15;87.24
9141;BME280;46330;50.822;7.126;2022-09-01T05:20:50;101314.16;;;14.25;86.79
9141;BME280;46330;50.822;7.126;2022-09-01T05:23:19;101316.41;;;14.42;85.74
9141;BME280;46330;50.822;7.126;2022-09-01T05:25:50;101323.03;;;14.58;84.65
9141;BME280;46330;50.822;7.126;2022-09-01T05:28:21;101314.56;;;14.81;84.60
9141;BME280;46330;50.822;7.126;2022-09-01T05:30:52;101318.84;;;14.85;82.80
9141;BME280;46330;50.822;7.126;2022-09-01T05:33:21;101329.81;;;15.02;82.33
9141;BME280;46330;50.822;7.126;2022-09-01T05:35:55;101318.03;;;15.46;81.77
9141;BME280;46330;50.822;7.126;2022-09-01T05:38:27;101332.72;;;15.85;79.27
9141;BME280;46330;50.822;7.126;2022-09-01T05:40:59;101331.34;;;16.03;77.14
9141;BME280;46330;50.822;7.126;2022-09-01T05:43:29;101330.19;;;16.38;75.13
9141;BME280;46330;50.822;7.126;2022-09-01T05:45:58;101326.66;;;16.66;73.24
9141;BME280;46330;50.822;7.126;2022-09-01T05:48:34;101332.41;;;17.04;71.38
9141;BME280;46330;50.822;7.126;2022-09-01T05:51:07;101334.59;;;17.41;69.77
9141;BME280;46330;50.822;7.126;2022-09-01T05:53:56;101343.03;;;17.77;68.08
9141;BME280;46330;50.822;7.126;2022-09-01T05:56:28;101340.53;;;17.95;66.43
9141;BME280;46330;50.822;7.126;2022-09-01T05:58:59;101347.00;;;18.33;64.94
9141;BME280;46330;50.822;7.126;2022-09-01T06:01:49;101343.72;;;18.48;63.38
9141;BME280;46330;50.822;7.126;2022-09-01T06:04:20;101341.78;;;18.95;62.56
9141;BME280;46330;50.822;7.126;2022-09-01T06:06:52;101344.97;;;19.23;60.17
9141;BME280;46330;50.822;7.126;2022-09-01T06:09:37;101339.44;;;19.28;59.51
9141;BME280;46330;50.822;7.126;2022-09-01T06:12:05;101347.81;;;19.59;58.99
9141;BME280;46330;50.822;7.126;2022-09-01T06:14:34;101334.50;;;19.41;58.28
9141;BME280;46330;50.822;7.126;2022-09-01T06:17:04;101344.53;;;19.73;57.57
9141;BME280;46330;50.822;7.126;2022-09-01T06:19:32;101340.94;;;19.93;56.61
9141;BME280;46330;50.822;7.126;2022-09-01T06:22:04;101345.56;;;19.89;56.68
9141;BME280;46330;50.822;7.126;2022-09-01T06:24:32;101350.78;;;20.28;55.48
9141;BME280;46330;50.822;7.126;2022-09-01T06:27:00;101356.38;;;20.76;54.15
9141;BME280;46330;50.822;7.126;2022-09-01T06:29:28;101349.19;;;20.78;53.19
9141;BME280;46330;50.822;7.126;2022-09-01T06:31:57;101351.88;;;21.13;52.97
9141;BME280;46330;50.822;7.126;2022-09-01T06:34:29;101356.91;;;20.83;52.50
9141;BME280;46330;50.822;7.126;2022-09-01T06:36:59;101357.28;;;21.28;51.68
9141;BME280;46330;50.822;7.126;2022-09-01T06:39:27;101357.06;;;21.16;51.38
9141;BME280;46330;50.822;7.126;2022-09-01T06:41:57;101355.97;;;21.53;50.67
9141;BME280;46330;50.822;7.126;2022-09-01T06:44:32;101355.06;;;21.54;50.79
9141;BME280;46330;50.822;7.126;2022-09-01T06:47:07;101362.81;;;22.07;48.95
9141;BME280;46330;50.822;7.126;2022-09-01T06:49:38;101361.44;;;22.46;47.46
9141;BME280;46330;50.822;7.126;2022-09-01T06:52:15;101361.34;;;22.48;47.80
9141;BME280;46330;50.822;7.126;2022-09-01T06:54:44;101360.00;;;22.25;46.63
9141;BME280;46330;50.822;7.126;2022-09-01T06:57:12;101358.94;;;22.59;46.68
9141;BME280;46330;50.822;7.126;2022-09-01T07:00:00;101363.34;;;22.13;47.29
9141;BME280;46330;50.822;7.126;2022-09-01T07:02:33;101369.28;;;22.95;46.39
9141;BME280;46330;50.822;7.126;2022-09-01T07:05:26;101365.28;;;22.88;44.73
9141;BME280;46330;50.822;7.126;2022-09-01T07:08:16;101366.00;;;23.06;44.54
9141;BME280;46330;50.822;7.126;2022-09-01T07:11:15;101371.59;;;23.01;44.74
9141;BME280;46330;50.822;7.126;2022-09-01T07:14:04;101369.56;;;22.90;43.96
9141;BME280;46330;50.822;7.126;2022-09-01T07:16:48;101367.13;;;22.72;44.75
9141;BME280;46330;50.822;7.126;2022-09-01T07:19:36;101365.38;;;23.74;42.63
9141;BME280;46330;50.822;7.126;2022-09-01T07:22:22;101367.16;;;24.02;43.32
9141;BME280;46330;50.822;7.126;2022-09-01T07:25:10;101357.97;;;24.61;40.69
9141;BME280;46330;50.822;7.126;2022-09-01T07:27:49;101366.34;;;24.96;39.63
9141;BME280;46330;50.822;7.126;2022-09-01T07:30:21;101364.75;;;24.93;40.09
9141;BME280;46330;50.822;7.126;2022-09-01T07:32:51;101360.34;;;24.10;40.88
9141;BME280;46330;50.822;7.126;2022-09-01T07:35:21;101359.50;;;24.10;41.76
9141;BME280;46330;50.822;7.126;2022-09-01T07:37:52;101356.44;;;24.57;39.79
9141;BME280;46330;50.822;7.126;2022-09-01T07:40:41;101358.56;;;24.52;39.55
9141;BME280;46330;50.822;7.126;2022-09-01T07:43:49;101361.13;;;24.80;39.76
9141;BME280;46330;50.822;7.126;2022-09-01T07:46:37;101365.22;;;24.32;40.35
9141;BME280;46330;50.822;7.126;2022-09-01T07:49:10;101365.91;;;24.63;39.34
9141;BME280;46330;50.822;7.126;2022-09-01T07:51:58;101357.09;;;25.39;37.67
9141;BME280;46330;50.822;7.126;2022-09-01T07:54:31;101367.56;;;25.17;38.79
9141;BME280;46330;50.822;7.126;2022-09-01T07:57:01;101361.53;;;25.53;37.29
9141;BME280;46330;50.822;7.126;2022-09-01T07:59:32;101362.78;;;25.85;36.73
9141;BME280;46330;50.822;7.126;2022-09-01T08:02:08;101361.22;;;26.06;37.17
9141;BME280;46330;50.822;7.126;2022-09-01T08:04:36;101357.84;;;26.64;36.27
9141;BME280;46330;50.822;7.126;2022-09-01T08:07:08;101360.28;;;26.44;36.10
9141;BME280;46330;50.822;7.126;2022-09-01T08:09:43;101360.47;;;25.55;36.97
9141;BME280;46330;50.822;7.126;2022-09-01T08:12:13;101362.88;;;25.46;36.74
9141;BME280;46330;50.822;7.126;2022-09-01T08:14:48;101356.00;;;26.17;36.12
9141;BME280;46330;50.822;7.126;2022-09-01T08:17:39;101361.97;;;26.34;35.79
9141;BME280;46330;50.822;7.126;2022-09-01T08:20:26;101364.78;;;26.19;36.37
9141;BME280;46330;50.822;7.126;2022-09-01T08:22:58;101360.38;;;26.55;35.20
9141;BME280;46330;50.822;7.126;2022-09-01T08:25:34;101359.94;;;26.12;36.66
9141;BME280;46330;50.822;7.126;2022-09-01T08:28:04;101366.91;;;26.51;36.00
9141;BME280;46330;50.822;7.126;2022-09-01T08:30:33;101367.00;;;26.26;35.35
9141;BME280;46330;50.822;7.126;2022-09-01T08:33:02;101358.63;;;27.01;35.40
9141;BME280;46330;50.822;7.126;2022-09-01T08:35:45;101361.72;;;26.37;35.26
9141;BME280;46330;50.822;7.126;2022-09-01T08:38:15;101357.47;;;26.82;34.67
9141;BME280;46330;50.822;7.126;2022-09-01T08:40:50;101360.91;;;26.47;36.05
9141;BME280;46330;50.822;7.126;2022-09-01T08:43:34;101357.59;;;26.44;35.85
9141;BME280;46330;50.822;7.126;2022-09-01T08:46:12;101360.91;;;26.24;35.86
9141;BME280;46330;50.822;7.126;2022-09-01T08:48:42;101354.06;;;26.67;34.91
9141;BME280;46330;50.822;7.126;2022-09-01T08:51:48;101353.34;;;27.35;33.97
9141;BME280;46330;50.822;7.126;2022-09-01T08:54:23;101357.50;;;26.09;35.68
9141;BME280;46330;50.822;7.126;2022-09-01T08:57:04;101353.53;;;27.44;34.49
9141;BME280;46330;50.822;7.126;2022-09-01T08:59:51;101349.66;;;27.24;34.05
9141;BME280;46330;50.822;7.126;2022-09-01T09:02:50;101359.94;;;26.72;34.23
9141;BME280;46330;50.822;7.126;2022-09-01T09:05:29;101348.91;;;28.13;32.67
9141;BME280;46330;50.822;7.126;2022-09-01T09:08:14;101340.06;;;28.22;32.19
9141;BME280;46330;50.822;7.126;2022-09-01T09:10:52;101353.34;;;28.89;30.43
9141;BME280;46330;50.822;7.126;2022-09-01T09:13:31;101354.88;;;27.61;32.60
9141;BME280;46330;50.822;7.126;2022-09-01T09:16:05;101341.94;;;29.17;31.20
9141;BME280;46330;50.822;7.126;2022-09-01T09:18:39;101340.94;;;28.22;32.13
9141;BME280;46330;50.822;7.126;2022-09-01T09:21:29;101337.03;;;27.49;33.51
9141;BME280;46330;50.822;7.126;2022-09-01T09:24:06;101343.03;;;27.63;32.14
9141;BME280;46330;50.822;7.126;2022-09-01T09:26:36;101334.81;;;27.87;32.29
9141;BME280;46330;50.822;7.126;2022-09-01T09:29:12;101335.63;;;29.27;29.77
9141;BME280;46330;50.822;7.126;2022-09-01T09:31:40;101334.06;;;29.76;29.90
9141;BME280;46330;50.822;7.126;2022-09-01T09:34:28;101330.50;;;29.04;30.14
9141;BME280;46330;50.822;7.126;2022-09-01T09:37:14;101321.97;;;29.80;29.77
9141;BME280;46330;50.822;7.126;2022-09-01T09:39:43;101326.31;;;31.18;27.57
9141;BME280;46330;50.822;7.126;2022-09-01T09:42:12;101320.94;;;28.79;30.43
9141;BME280;46330;50.822;7.126;2022-09-01T09:44:44;101311.97;;;29.10;30.74
9141;BME280;46330;50.822;7.126;2022-09-01T09:47:32;101319.41;;;30.97;27.66
9141;BME280;46330;50.822;7.126;2022-09-01T09:50:17;101306.22;;;31.77;26.71
9141;BME280;46330;50.822;7.126;2022-09-01T09:52:46;101306.34;;;29.44;29.41
9141;BME280;46330;50.822;7.126;2022-09-01T09:55:21;101304.66;;;30.13;29.35
9141;BME280;46330;50.822;7.126;2022-09-01T09:57:53;101304.75;;;29.62;28.80
9141;BME280;46330;50.822;7.126;2022-09-01T10:00:24;101301.13;;;30.31;28.36
9141;BME280;46330;50.822;7.126;2022-09-01T10:02:56;101299.47;;;30.50;26.94
9141;BME280;46330;50.822;7.126;2022-09-01T10:05:38;101297.66;;;29.91;28.03
9141;BME280;46330;50.822;7.126;2022-09-01T10:08:08;101287.84;;;29.60;28.65
9141;BME280;46330;50.822;7.126;2022-09-01T10:10:40;101288.19;;;30.16;28.85
9141;BME280;46330;50.822;7.126;2022-09-01T10:13:11;101288.56;;;29.62;29.50
9141;BME280;46330;50.822;7.126;2022-09-01T10:15:45;101294.28;;;30.27;27.62
9141;BME280;46330;50.822;7.126;2022-09-01T10:18:18;101283.81;;;28.30;30.49
9141;BME280;46330;50.822;7.126;2022-09-01T10:20:57;101279.25;;;28.30;30.48
9141;BME280;46330;50.822;7.126;2022-09-01T10:23:28;101284.03;;;28.91;29.61
9141;BME280;46330;50.822;7.126;2022-09-01T10:26:00;101276.25;;;30.18;28.60
9141;BME280;46330;50.822;7.126;2022-09-01T10:28:33;101277.53;;;31.20;27.42
9141;BME280;46330;50.822;7.126;2022-09-01T10:31:05;101276.09;;;29.61;28.52
9141;BME280;46330;50.822;7.126;2022-09-01T10:33:35;101267.91;;;30.88;27.39
9141;BME280;46330;50.822;7.126;2022-09-01T10:36:04;101275.25;;;29.70;28.83
9141;BME280;46330;50.822;7.126;2022-09-01T10:38:34;101265.50;;;30.57;27.89
9141;BME280;46330;50.822;7.126;2022-09-01T10:41:02;101272.16;;;31.01;26.94
9141;BME280;46330;50.822;7.126;2022-09-01T10:43:42;101261.88;;;29.28;28.88
9141;BME280;46330;50.822;7.126;2022-09-01T10:55:46;101250.06;;;29.90;29.11
9141;BME280;46330;50.822;7.126;2022-09-01T10:58:24;101251.59;;;31.27;27.40
9141;BME280;46330;50.822;7.126;2022-09-01T11:02:03;101254.03;;;29.56;28.85
9141;BME280;46330;50.822;7.126;2022-09-01T11:05:15;101238.50;;;28.35;30.57
9141;BME280;46330;50.822;7.126;2022-09-01T11:07:44;101247.47;;;29.39;29.14
9141;BME280;46330;50.822;7.126;2022-09-01T11:10:42;101256.56;;;28.97;29.55
9141;BME280;46330;50.822;7.126;2022-09-01T11:13:27;101254.31;;;29.22;29.50
9141;BME280;46330;50.822;7.126;2022-09-01T11:16:24;101246.22;;;29.22;29.39
9141;BME280;46330;50.822;7.126;2022-09-01T11:19:38;101244.69;;;28.78;30.40
9141;BME280;46330;50.822;7.126;2022-09-01T11:22:19;101242.91;;;29.40;29.40
9141;BME280;46330;50.822;7.126;2022-09-01T11:25:09;101246.00;;;29.14;29.42
9141;BME280;46330;50.822;7.126;2022-09-01T11:27:56;101245.28;;;29.63;29.02
9141;BME280;46330;50.822;7.126;2022-09-01T11:30:34;101242.75;;;29.11;29.16
9141;BME280;46330;50.822;7.126;2022-09-01T11:33:12;101248.41;;;28.87;30.22
9141;BME280;46330;50.822;7.126;2022-09-01T11:35:45;101245.72;;;28.87;29.72
9141;BME280;46330;50.822;7.126;2022-09-01T11:38:17;101244.81;;;28.13;31.30
9141;BME280;46330;50.822;7.126;2022-09-01T11:40:54;101235.19;;;28.43;29.91
9141;BME280;46330;50.822;7.126;2022-09-01T11:43:23;101232.25;;;28.87;30.13
9141;BME280;46330;50.822;7.126;2022-09-01T11:46:01;101225.63;;;28.70;30.77
9141;BME280;46330;50.822;7.126;2022-09-01T11:48:33;101231.91;;;28.60;30.32
9141;BME280;46330;50.822;7.126;2022-09-01T11:51:03;101233.00;;;29.90;29.07
9141;BME280;46330;50.822;7.126;2022-09-01T11:53:31;101231.19;;;28.99;29.62
9141;BME280;46330;50.822;7.126;2022-09-01T11:56:12;101233.78;;;28.80;30.98
9141;BME280;46330;50.822;7.126;2022-09-01T11:58:41;101224.16;;;29.28;30.23
9141;BME280;46330;50.822;7.126;2022-09-01T12:01:15;101225.50;;;29.53;30.05
9141;BME280;46330;50.822;7.126;2022-09-01T12:03:44;101227.81;;;28.76;30.43
9141;BME280;46330;50.822;7.126;2022-09-01T12:06:21;101215.69;;;26.87;33.41
9141;BME280;46330;50.822;7.126;2022-09-01T12:08:57;101223.75;;;27.31;33.02
9141;BME280;46330;50.822;7.126;2022-09-01T12:11:27;101214.00;;;28.17;31.85
9141;BME280;46330;50.822;7.126;2022-09-01T12:13:59;101218.38;;;28.50;31.28
9141;BME280;46330;50.822;7.126;2022-09-01T12:16:32;101210.91;;;28.95;30.77
9141;BME280;46330;50.822;7.126;2022-09-01T12:19:04;101198.94;;;28.15;31.42
9141;BME280;46330;50.822;7.126;2022-09-01T12:21:35;101206.22;;;28.56;31.00
9141;BME280;46330;50.822;7.126;2022-09-01T12:24:12;101204.94;;;27.20;33.44
9141;BME280;46330;50.822;7.126;2022-09-01T12:26:42;101201.06;;;27.24;33.32
9141;BME280;46330;50.822;7.126;2022-09-01T12:29:11;101203.38;;;26.60;34.88
9141;BME280;46330;50.822;7.126;2022-09-01T12:31:41;101200.16;;;26.44;35.25
9141;BME280;46330;50.822;7.126;2022-09-01T12:34:23;101192.41;;;26.29;35.34
9141;BME280;46330;50.822;7.126;2022-09-01T12:37:05;101202.34;;;25.43;36.73
9141;BME280;46330;50.822;7.126;2022-09-01T12:39:35;101187.88;;;25.45;36.91
9141;BME280;46330;50.822;7.126;2022-09-01T12:42:09;101193.44;;;26.39;35.95
9141;BME280;46330;50.822;7.126;2022-09-01T12:44:47;101186.38;;;27.39;34.07
9141;BME280;46330;50.822;7.126;2022-09-01T12:47:45;101195.22;;;27.84;32.36
9141;BME280;46330;50.822;7.126;2022-09-01T12:50:41;101192.25;;;27.22;33.64
9141;BME280;46330;50.822;7.126;2022-09-01T12:53:18;101181.03;;;26.49;34.87
9141;BME280;46330;50.822;7.126;2022-09-01T12:58:48;101193.88;;;25.85;36.52
9141;BME280;46330;50.822;7.126;2022-09-01T13:01:27;101191.78;;;25.16;37.54
9141;BME280;46330;50.822;7.126;2022-09-01T13:04:13;101193.25;;;25.33;37.91
9141;BME280;46330;50.822;7.126;2022-09-01T13:06:43;101184.19;;;24.97;37.72
9141;BME280;46330;50.822;7.126;2022-09-01T13:09:12;101195.22;;;25.18;37.74
9141;BME280;46330;50.822;7.126;2022-09-01T13:11:40;101182.53;;;25.82;36.77
9141;BME280;46330;50.822;7.126;2022-09-01T13:14:28;101185.88;;;25.36;37.50
9141;BME280;46330;50.822;7.126;2022-09-01T13:16:57;101178.88;;;26.06;36.46
9141;BME280;46330;50.822;7.126;2022-09-01T13:19:24;101174.03;;;26.35;35.18
9141;BME280;46330;50.822;7.126;2022-09-01T13:21:56;101169.06;;;25.71;36.38
9141;BME280;46330;50.822;7.126;2022-09-01T13:24:25;101168.75;;;25.62;36.35
9141;BME280;46330;50.822;7.126;2022-09-01T13:26:57;101161.53;;;25.39;37.38
9141;BME280;46330;50.822;7.126;2022-09-01T13:29:45;101152.81;;;25.61;37.08
9141;BME280;46330;50.822;7.126;2022-09-01T13:32:13;101150.47;;;25.44;37.15
9141;BME280;46330;50.822;7.126;2022-09-01T13:34:45;101160.28;;;25.92;36.62
9141;BME280;46330;50.822;7.126;2022-09-01T13:37:15;101148.38;;;27.21;34.62
9141;BME280;46330;50.822;7.126;2022-09-01T13:39:45;101142.06;;;27.45;33.14
9141;BME280;46330;50.822;7.126;2022-09-01T13:42:14;101144.88;;;28.18;32.14
9141;BME280;46330;50.822;7.126;2022-09-01T13:44:42;101139.59;;;28.69;31.87
9141;BME280;46330;50.822;7.126;2022-09-01T13:47:15;101141.88;;;29.04;30.88
9141;BME280;46330;50.822;7.126;2022-09-01T13:49:59;101135.19;;;27.95;31.89